createdAt,value
2024-01-10T00:00:42.329Z,-3.57
2024-01-10T00:03:08.924Z,-3.59
2024-01-10T00:05:35.458Z,-3.53
2024-01-10T00:08:02.007Z,-3.54
2024-01-10T00:10:28.561Z,-3.54
2024-01-10T00:12:55.131Z,-3.53
2024-01-10T00:15:21.702Z,-3.53
2024-01-10T00:17:48.320Z,-3.49
2024-01-10T00:20:15.084Z,-3.49
2024-01-10T00:22:41.772Z,-3.54
2024-01-10T00:25:08.913Z,-3.57
2024-01-10T00:27:35.377Z,-3.46
2024-01-10T00:30:01.947Z,-3.47
2024-01-10T00:32:28.669Z,-3.44
2024-01-10T00:34:55.459Z,-3.47
2024-01-10T00:37:22.073Z,-3.46
2024-01-10T00:39:48.569Z,-3.44
2024-01-10T00:42:15.075Z,-3.51
2024-01-10T00:44:41.599Z,-3.50
2024-01-10T00:47:08.135Z,-3.48
2024-01-10T00:49:34.795Z,-3.49
2024-01-10T00:52:01.477Z,-3.44
2024-01-10T00:54:28.004Z,-3.44
2024-01-10T00:56:54.535Z,-3.44
2024-01-10T00:59:21.017Z,-3.44
2024-01-10T01:01:47.664Z,-3.39
2024-01-10T01:04:14.237Z,-3.40
2024-01-10T01:06:40.736Z,-3.39
2024-01-10T01:09:07.257Z,-3.37
2024-01-10T01:11:33.790Z,-3.39
2024-01-10T01:14:00.397Z,-3.40
2024-01-10T01:16:27.014Z,-3.39
2024-01-10T01:18:53.573Z,-3.43
2024-01-10T01:21:20.322Z,-3.41
2024-01-10T01:23:46.845Z,-3.47
2024-01-10T01:26:15.630Z,-3.40
2024-01-10T01:28:42.354Z,-3.40
2024-01-10T01:31:09.066Z,-3.38
2024-01-10T01:33:35.659Z,-3.41
2024-01-10T01:36:02.261Z,-3.40
2024-01-10T01:38:28.810Z,-3.39
2024-01-10T01:40:55.386Z,-3.36
2024-01-10T01:43:23.964Z,-3.36
2024-01-10T01:45:56.513Z,-3.35
2024-01-10T01:48:25.229Z,-3.33
2024-01-10T01:50:55.539Z,-3.30
2024-01-10T01:53:22.714Z,-3.33
2024-01-10T01:55:49.827Z,-3.38
2024-01-10T01:58:16.738Z,-3.33
2024-01-10T02:00:44.761Z,-3.33
2024-01-10T02:03:11.899Z,-3.33
2024-01-10T02:05:39.228Z,-3.33
2024-01-10T02:08:06.388Z,-3.34
2024-01-10T02:10:33.192Z,-3.33
2024-01-10T02:13:00.098Z,-3.25
2024-01-10T02:15:26.967Z,-3.23
2024-01-10T02:17:53.580Z,-3.20
2024-01-10T02:20:22.140Z,-3.23
2024-01-10T02:22:50.177Z,-3.24
2024-01-10T02:25:16.673Z,-3.27
2024-01-10T02:27:43.385Z,-3.24
2024-01-10T02:30:11.265Z,-3.28
2024-01-10T02:32:38.421Z,-3.31
2024-01-10T02:35:06.314Z,-3.29
2024-01-10T02:37:32.913Z,-3.29
2024-01-10T02:39:59.738Z,-3.28
2024-01-10T02:42:29.931Z,-3.30
2024-01-10T02:44:56.424Z,-3.22
2024-01-10T02:47:23.070Z,-3.24
2024-01-10T02:49:50.120Z,-3.19
2024-01-10T02:52:16.812Z,-3.24
2024-01-10T02:54:43.321Z,-3.32
2024-01-10T02:57:09.816Z,-3.31
2024-01-10T02:59:36.327Z,-3.31
2024-01-10T03:02:02.973Z,-3.27
2024-01-10T03:04:29.683Z,-3.17
2024-01-10T03:06:56.186Z,-3.20
2024-01-10T03:09:24.213Z,-3.22
2024-01-10T03:11:50.753Z,-3.19
2024-01-10T03:14:17.330Z,-3.12
2024-01-10T03:16:44.027Z,-3.11
2024-01-10T03:19:10.680Z,-3.10
2024-01-10T03:21:37.539Z,-3.17
2024-01-10T03:24:04.918Z,-3.20
2024-01-10T03:26:31.670Z,-3.16
2024-01-10T03:28:58.800Z,-3.20
2024-01-10T03:31:25.407Z,-3.26
2024-01-10T03:33:52.227Z,-3.29
2024-01-10T03:36:19.506Z,-3.25
2024-01-10T03:38:46.275Z,-3.16
2024-01-10T03:41:16.800Z,-3.17
2024-01-10T03:43:43.841Z,-3.28
2024-01-10T03:46:10.999Z,-3.26
2024-01-10T03:48:38.349Z,-3.34
2024-01-10T03:51:05.322Z,-3.36
2024-01-10T03:53:32.093Z,-3.41
2024-01-10T03:55:58.651Z,-3.49
2024-01-10T03:58:25.366Z,-3.53
2024-01-10T04:00:51.893Z,-3.54
2024-01-10T04:03:18.852Z,-3.58
2024-01-10T04:05:45.727Z,-3.62
2024-01-10T04:08:12.489Z,-3.65
2024-01-10T04:10:39.014Z,-3.63
2024-01-10T04:13:05.648Z,-3.66
2024-01-10T04:15:32.142Z,-3.63
2024-01-10T04:17:58.689Z,-3.65
2024-01-10T04:20:25.423Z,-3.62
2024-01-10T04:22:52.072Z,-3.62
2024-01-10T04:25:18.659Z,-3.62
2024-01-10T04:27:45.237Z,-3.64
2024-01-10T04:30:12.848Z,-3.58
2024-01-10T04:32:39.512Z,-3.61
2024-01-10T04:35:07.968Z,-3.59
2024-01-10T04:37:34.566Z,-3.54
2024-01-10T04:40:01.065Z,-3.54
2024-01-10T04:42:27.583Z,-3.50
2024-01-10T04:44:54.163Z,-3.52
2024-01-10T04:47:20.909Z,-3.46
2024-01-10T04:49:47.646Z,-3.47
2024-01-10T04:52:14.270Z,-3.43
2024-01-10T04:54:40.798Z,-3.46
2024-01-10T04:57:07.999Z,-3.50
2024-01-10T04:59:34.543Z,-3.46
2024-01-10T05:02:01.344Z,-3.45
2024-01-10T05:04:27.859Z,-3.42
2024-01-10T05:06:54.375Z,-3.37
2024-01-10T05:09:21.005Z,-3.30
2024-01-10T05:11:52.438Z,-3.29
2024-01-10T05:14:22.693Z,-3.24
2024-01-10T05:16:49.620Z,-3.29
2024-01-10T05:19:16.463Z,-3.22
2024-01-10T05:21:43.139Z,-3.24
2024-01-10T05:24:09.888Z,-3.24
2024-01-10T05:26:36.798Z,-3.25
2024-01-10T05:29:03.375Z,-3.18
2024-01-10T05:31:29.875Z,-3.17
2024-01-10T05:33:56.508Z,-3.13
2024-01-10T05:36:24.311Z,-3.09
2024-01-10T05:38:50.813Z,-3.11
2024-01-10T05:41:17.387Z,-3.11
2024-01-10T05:43:45.262Z,-3.09
2024-01-10T05:46:12.027Z,-2.97
2024-01-10T05:48:38.641Z,-2.94
2024-01-10T05:51:05.735Z,-2.93
2024-01-10T05:53:32.465Z,-2.95
2024-01-10T05:55:59.417Z,-2.88
2024-01-10T05:58:26.137Z,-2.84
2024-01-10T06:00:53.134Z,-2.83
2024-01-10T06:03:19.850Z,-2.82
2024-01-10T06:05:46.454Z,-2.87
2024-01-10T06:08:15.217Z,-2.90
2024-01-10T06:10:41.918Z,-2.88
2024-01-10T06:13:08.507Z,-2.84
2024-01-10T06:15:35.071Z,-2.82
2024-01-10T06:18:01.726Z,-2.82
2024-01-10T06:20:29.184Z,-2.79
2024-01-10T06:22:56.054Z,-2.75
2024-01-10T06:25:22.731Z,-2.71
2024-01-10T06:27:49.240Z,-2.72
2024-01-10T06:30:15.812Z,-2.71
2024-01-10T06:32:42.423Z,-2.74
2024-01-10T06:35:11.237Z,-2.74
2024-01-10T06:37:39.178Z,-2.69
2024-01-10T06:40:07.008Z,-2.65
2024-01-10T06:42:34.558Z,-2.65
2024-01-10T06:45:01.140Z,-2.63
2024-01-10T06:47:27.790Z,-2.67
2024-01-10T06:49:54.533Z,-2.61
2024-01-10T06:52:21.374Z,-2.58
2024-01-10T06:54:47.880Z,-2.56
2024-01-10T06:57:14.436Z,-2.58
2024-01-10T06:59:40.915Z,-2.51
2024-01-10T07:02:07.480Z,-2.48
2024-01-10T07:04:34.309Z,-2.61
2024-01-10T07:07:01.837Z,-2.57
2024-01-10T07:09:28.509Z,-2.54
2024-01-10T07:11:55.031Z,-2.51
2024-01-10T07:14:21.784Z,-2.43
2024-01-10T07:16:49.157Z,-2.41
2024-01-10T07:19:16.123Z,-2.43
2024-01-10T07:21:43.864Z,-2.44
2024-01-10T07:24:11.350Z,-2.39
2024-01-10T07:26:38.300Z,-2.38
2024-01-10T07:29:05.315Z,-2.36
2024-01-10T07:31:31.936Z,-2.39
2024-01-10T07:33:58.662Z,-2.38
2024-01-10T07:36:30.956Z,-2.40
2024-01-10T07:39:01.049Z,-2.40
2024-01-10T07:41:28.420Z,-2.35
2024-01-10T07:43:55.128Z,-2.28
2024-01-10T07:46:21.692Z,-2.30
2024-01-10T07:48:48.229Z,-2.27
2024-01-10T07:51:14.875Z,-2.23
2024-01-10T07:53:41.562Z,-2.16
2024-01-10T07:56:08.172Z,-2.13
2024-01-10T07:58:34.792Z,-2.06
2024-01-10T08:01:01.568Z,-2.00
2024-01-10T08:03:28.156Z,-1.94
2024-01-10T08:05:54.798Z,-1.94
2024-01-10T08:08:21.566Z,-1.93
2024-01-10T08:10:48.235Z,-1.88
2024-01-10T08:13:14.746Z,-1.78
2024-01-10T08:15:42.847Z,-1.65
2024-01-10T08:18:09.480Z,-1.63
2024-01-10T08:20:36.185Z,-1.54
2024-01-10T08:23:03.175Z,-1.48
2024-01-10T08:25:30.862Z,-1.43
2024-01-10T08:27:58.867Z,-1.37
2024-01-10T08:30:26.087Z,-1.38
2024-01-10T08:32:53.597Z,-1.29
2024-01-10T08:35:20.518Z,-1.28
2024-01-10T08:37:47.803Z,-1.31
2024-01-10T08:40:16.701Z,-1.26
2024-01-10T08:42:43.473Z,-1.20
2024-01-10T08:45:12.177Z,-1.13
2024-01-10T08:47:38.861Z,-1.11
2024-01-10T08:50:06.475Z,-1.11
2024-01-10T08:52:33.401Z,-1.14
2024-01-10T08:55:00.035Z,-1.13
2024-01-10T08:57:29.101Z,-1.07
2024-01-10T08:59:55.797Z,-0.95
2024-01-10T09:02:24.478Z,-0.93
2024-01-10T09:04:51.517Z,-0.71
2024-01-10T09:07:19.568Z,-0.47
2024-01-10T09:09:46.427Z,-0.13
2024-01-10T09:12:13.005Z,0.24
2024-01-10T09:14:39.760Z,0.79
2024-01-10T09:17:07.062Z,1.99
2024-01-10T09:19:33.691Z,3.59
2024-01-10T09:22:00.526Z,5.30
2024-01-10T09:24:30.361Z,6.59
2024-01-10T09:26:57.860Z,7.70
2024-01-10T09:29:27.028Z,7.42
2024-01-10T09:31:54.105Z,8.08
2024-01-10T09:34:21.537Z,9.37
2024-01-10T09:36:48.277Z,10.33
2024-01-10T09:39:15.320Z,11.29
2024-01-10T09:41:48.780Z,12.57
2024-01-10T09:44:18.848Z,13.47
2024-01-10T09:46:49.181Z,14.13
2024-01-10T09:49:16.107Z,13.46
2024-01-10T09:51:42.807Z,14.28
2024-01-10T09:54:09.554Z,14.65
2024-01-10T09:56:36.076Z,15.89
2024-01-10T09:59:07.329Z,16.12
2024-01-10T10:01:34.584Z,16.77
2024-01-10T10:04:03.458Z,16.80
2024-01-10T10:06:30.141Z,16.21
2024-01-10T10:08:56.968Z,16.77
2024-01-10T10:11:23.730Z,18.45
2024-01-10T10:13:50.345Z,18.96
2024-01-10T10:16:26.396Z,19.19
2024-01-10T10:18:59.113Z,19.66
2024-01-10T10:21:29.379Z,20.53
2024-01-10T10:24:05.030Z,20.29
2024-01-10T10:26:34.861Z,19.23
2024-01-10T10:29:01.890Z,19.37
2024-01-10T10:31:30.240Z,19.64
2024-01-10T10:33:57.169Z,20.87
2024-01-10T10:36:23.832Z,20.58
2024-01-10T10:38:50.721Z,20.23
2024-01-10T10:41:17.620Z,20.08
2024-01-10T10:43:44.417Z,20.13
2024-01-10T10:46:16.204Z,20.41
2024-01-10T10:48:44.525Z,19.90
2024-01-10T10:51:15.126Z,18.33
2024-01-10T10:53:46.406Z,17.84
2024-01-10T10:56:13.659Z,18.05
2024-01-10T10:58:44.479Z,18.35
2024-01-10T11:01:14.107Z,17.43
2024-01-10T11:03:43.838Z,16.62
2024-01-10T11:06:10.784Z,16.68
2024-01-10T11:08:43.877Z,16.91
2024-01-10T11:11:35.177Z,16.80
2024-01-10T11:14:21.268Z,17.03
2024-01-10T11:17:10.997Z,16.49
2024-01-10T11:20:00.044Z,16.04
2024-01-10T11:22:44.524Z,16.03
2024-01-10T11:25:12.262Z,17.25
2024-01-10T11:27:38.864Z,18.30
2024-01-10T11:30:06.964Z,18.69
2024-01-10T11:32:35.392Z,19.44
2024-01-10T11:35:08.492Z,20.19
2024-01-10T11:37:45.385Z,20.08
2024-01-10T11:40:15.273Z,20.72
2024-01-10T11:42:43.345Z,21.06
2024-01-10T11:45:10.169Z,21.10
2024-01-10T11:47:42.366Z,20.56
2024-01-10T11:50:09.364Z,20.03
2024-01-10T11:52:38.234Z,18.31
2024-01-10T11:55:08.399Z,17.04
2024-01-10T11:57:35.969Z,17.91
2024-01-10T12:00:03.932Z,18.86
2024-01-10T12:02:31.067Z,18.28
2024-01-10T12:04:58.099Z,18.40
2024-01-10T12:07:26.325Z,18.98
2024-01-10T12:09:53.060Z,19.57
2024-01-10T12:12:19.851Z,19.25
2024-01-10T12:14:47.527Z,18.72
2024-01-10T12:17:15.231Z,18.29
2024-01-10T12:19:46.151Z,18.90
2024-01-10T12:22:13.372Z,18.75
2024-01-10T12:24:47.820Z,18.68
2024-01-10T12:27:17.628Z,19.46
2024-01-10T12:29:44.269Z,19.56
2024-01-10T12:32:11.573Z,19.06
2024-01-10T12:34:44.027Z,19.75
2024-01-10T12:37:11.866Z,19.55
2024-01-10T12:39:39.994Z,19.75
2024-01-10T12:42:06.866Z,19.36
2024-01-10T12:44:33.526Z,18.86
2024-01-10T12:47:01.568Z,19.13
2024-01-10T12:49:28.272Z,19.28
2024-01-10T12:51:55.079Z,17.40
2024-01-10T12:54:22.016Z,17.90
2024-01-10T12:56:48.674Z,17.82
2024-01-10T12:59:15.385Z,18.48
2024-01-10T13:01:43.331Z,18.46
2024-01-10T13:04:13.586Z,16.62
2024-01-10T13:06:41.712Z,17.26
2024-01-10T13:09:08.681Z,16.97
2024-01-10T13:11:36.775Z,17.60
2024-01-10T13:14:03.502Z,17.88
2024-01-10T13:16:30.730Z,16.95
2024-01-10T13:18:59.615Z,17.13
2024-01-10T13:21:26.779Z,17.65
2024-01-10T13:23:53.559Z,17.46
2024-01-10T13:26:20.189Z,17.74
2024-01-10T13:28:46.879Z,17.53
2024-01-10T13:31:13.990Z,18.18
2024-01-10T13:33:46.633Z,17.69
2024-01-10T13:36:15.502Z,17.05
2024-01-10T13:38:42.167Z,16.66
2024-01-10T13:41:09.169Z,16.51
2024-01-10T13:43:35.720Z,16.81
2024-01-10T13:46:08.606Z,16.01
2024-01-10T13:48:36.731Z,15.22
2024-01-10T13:51:03.581Z,13.61
2024-01-10T13:53:30.170Z,11.89
2024-01-10T13:55:56.941Z,10.46
2024-01-10T13:58:24.834Z,9.39
2024-01-10T14:00:52.613Z,8.08
2024-01-10T14:03:19.336Z,6.71
2024-01-10T14:05:46.224Z,6.05
2024-01-10T14:08:12.951Z,5.34
2024-01-10T14:10:40.405Z,4.91
2024-01-10T14:13:06.820Z,4.41
2024-01-10T14:15:33.379Z,4.18
2024-01-10T14:18:00.078Z,3.95
2024-01-10T14:20:26.821Z,3.84
2024-01-10T14:22:53.697Z,3.60
2024-01-10T14:25:21.975Z,3.51
2024-01-10T14:27:48.843Z,3.18
2024-01-10T14:30:16.758Z,3.02
2024-01-10T14:32:43.995Z,2.94
2024-01-10T14:35:11.060Z,2.78
2024-01-10T14:37:38.062Z,2.66
2024-01-10T14:40:06.036Z,2.61
2024-01-10T14:42:34.141Z,2.47
2024-01-10T14:45:02.339Z,2.43
2024-01-10T14:47:30.375Z,2.36
2024-01-10T14:49:59.044Z,2.21
2024-01-10T14:52:28.696Z,2.15
2024-01-10T14:54:55.356Z,2.07
2024-01-10T14:57:23.213Z,2.04
2024-01-10T14:59:49.941Z,1.91
2024-01-10T15:02:19.718Z,1.76
2024-01-10T15:04:46.635Z,1.70
2024-01-10T15:07:14.451Z,1.69
2024-01-10T15:09:43.056Z,1.66
2024-01-10T15:12:10.497Z,1.60
2024-01-10T15:14:39.939Z,1.49
2024-01-10T15:17:09.948Z,1.42
2024-01-10T15:19:37.514Z,1.40
2024-01-10T15:22:06.153Z,1.31
2024-01-10T15:24:33.608Z,1.20
2024-01-10T15:27:08.153Z,1.17
2024-01-10T15:29:34.911Z,1.09
2024-01-10T15:32:02.087Z,1.06
2024-01-10T15:34:29.017Z,1.04
2024-01-10T15:36:55.623Z,0.99
2024-01-10T15:39:22.640Z,0.93
2024-01-10T15:41:51.121Z,0.90
2024-01-10T15:44:22.122Z,0.85
2024-01-10T15:46:49.818Z,0.81
2024-01-10T15:49:17.205Z,0.78
2024-01-10T15:51:44.040Z,0.75
2024-01-10T15:54:10.892Z,0.68
2024-01-10T15:56:40.512Z,0.64
2024-01-10T15:59:08.251Z,0.59
2024-01-10T16:01:37.953Z,0.54
2024-01-10T16:04:04.974Z,0.46
2024-01-10T16:06:33.261Z,0.39
2024-01-10T16:09:01.089Z,0.35
2024-01-10T16:11:28.141Z,0.28
2024-01-10T16:13:54.745Z,0.22
2024-01-10T16:16:30.644Z,0.13
2024-01-10T16:18:58.023Z,0.06
2024-01-10T16:21:24.571Z,-0.01
2024-01-10T16:23:52.295Z,-0.13
2024-01-10T16:26:18.933Z,-0.22
2024-01-10T16:28:45.873Z,-0.31
2024-01-10T16:31:12.541Z,-0.41
2024-01-10T16:33:39.258Z,-0.56
2024-01-10T16:36:06.624Z,-0.64
2024-01-10T16:38:33.277Z,-0.68
2024-01-10T16:41:00.320Z,-0.80
2024-01-10T16:43:28.245Z,-0.88
2024-01-10T16:45:56.819Z,-0.92
2024-01-10T16:48:23.605Z,-0.99
2024-01-10T16:50:50.713Z,-1.06
2024-01-10T16:53:17.579Z,-1.12
2024-01-10T16:55:44.234Z,-1.19
2024-01-10T16:58:10.847Z,-1.23
2024-01-10T17:00:37.764Z,-1.26
2024-01-10T17:03:05.000Z,-1.31
2024-01-10T17:05:35.412Z,-1.36
2024-01-10T17:08:05.089Z,-1.40
2024-01-10T17:10:31.811Z,-1.43
2024-01-10T17:12:58.326Z,-1.47
2024-01-10T17:15:24.817Z,-1.50
2024-01-10T17:17:51.569Z,-1.54
2024-01-10T17:20:18.295Z,-1.56
2024-01-10T17:22:44.889Z,-1.56
2024-01-10T17:25:12.715Z,-1.59
2024-01-10T17:27:39.962Z,-1.62
2024-01-10T17:30:08.052Z,-1.66
2024-01-10T17:32:35.126Z,-1.72
2024-01-10T17:35:04.162Z,-1.73
2024-01-10T17:37:31.040Z,-1.74
2024-01-10T17:39:57.715Z,-1.76
2024-01-10T17:42:24.320Z,-1.77
2024-01-10T17:44:50.890Z,-1.86
2024-01-10T17:47:17.683Z,-1.93
2024-01-10T17:49:44.457Z,-1.94
2024-01-10T17:52:11.068Z,-1.94
2024-01-10T17:54:37.946Z,-1.95
2024-01-10T17:57:05.404Z,-1.96
2024-01-10T17:59:31.930Z,-1.98
2024-01-10T18:01:58.724Z,-2.00
2024-01-10T18:04:25.380Z,-2.02
2024-01-10T18:06:52.068Z,-2.04
2024-01-10T18:09:18.640Z,-2.04
2024-01-10T18:11:45.179Z,-2.04
2024-01-10T18:14:11.905Z,-2.05
2024-01-10T18:16:38.483Z,-2.04
2024-01-10T18:19:05.066Z,-2.02
2024-01-10T18:21:31.733Z,-2.00
2024-01-10T18:23:59.281Z,-1.98
2024-01-10T18:26:26.261Z,-1.96
2024-01-10T18:28:53.051Z,-1.98
2024-01-10T18:31:19.690Z,-1.97
2024-01-10T18:33:48.169Z,-1.97
2024-01-10T18:36:16.144Z,-1.97
2024-01-10T18:38:42.888Z,-1.95
2024-01-10T18:41:09.800Z,-1.98
2024-01-10T18:43:36.575Z,-1.98
2024-01-10T18:46:03.114Z,-1.99
2024-01-10T18:48:29.737Z,-2.02
2024-01-10T18:50:56.496Z,-2.05
2024-01-10T18:53:23.007Z,-2.06
2024-01-10T18:55:49.631Z,-2.12
2024-01-10T18:58:16.782Z,-2.13
2024-01-10T19:00:44.360Z,-2.17
2024-01-10T19:03:10.975Z,-2.20
2024-01-10T19:05:38.020Z,-2.22
2024-01-10T19:08:05.064Z,-2.23
2024-01-10T19:10:31.584Z,-2.24
2024-01-10T19:12:58.102Z,-2.23
2024-01-10T19:15:25.047Z,-2.24
2024-01-10T19:17:51.847Z,-2.23
2024-01-10T19:20:18.662Z,-2.22
2024-01-10T19:22:47.260Z,-2.22
2024-01-10T19:25:13.880Z,-2.23
2024-01-10T19:27:40.488Z,-2.26
2024-01-10T19:30:10.811Z,-2.32
2024-01-10T19:32:37.495Z,-2.38
2024-01-10T19:35:04.955Z,-2.37
2024-01-10T19:37:31.518Z,-2.41
2024-01-10T19:39:58.903Z,-2.49
2024-01-10T19:42:26.701Z,-2.52
2024-01-10T19:44:54.299Z,-2.55
2024-01-10T19:47:20.932Z,-2.53
2024-01-10T19:49:47.503Z,-2.54
2024-01-10T19:52:16.226Z,-2.57
2024-01-10T19:54:43.428Z,-2.61
2024-01-10T19:57:09.934Z,-2.64
2024-01-10T19:59:36.545Z,-2.65
2024-01-10T20:02:08.906Z,-2.61
2024-01-10T20:04:35.592Z,-2.59
2024-01-10T20:07:02.050Z,-2.62
2024-01-10T20:09:28.852Z,-2.64
2024-01-10T20:11:55.430Z,-2.66
2024-01-10T20:14:22.189Z,-2.70
2024-01-10T20:16:49.756Z,-2.73
2024-01-10T20:19:17.104Z,-2.79
2024-01-10T20:21:43.696Z,-2.84
2024-01-10T20:24:10.316Z,-2.85
2024-01-10T20:26:37.070Z,-2.87
2024-01-10T20:29:03.778Z,-2.92
2024-01-10T20:31:30.436Z,-2.98
2024-01-10T20:33:57.060Z,-3.01
2024-01-10T20:36:24.259Z,-3.06
2024-01-10T20:38:50.893Z,-3.09
2024-01-10T20:41:17.466Z,-3.10
2024-01-10T20:43:43.971Z,-3.11
2024-01-10T20:46:10.532Z,-3.12
2024-01-10T20:48:37.250Z,-3.16
2024-01-10T20:51:04.073Z,-3.19
2024-01-10T20:53:30.651Z,-3.26
2024-01-10T20:55:57.386Z,-3.30
2024-01-10T20:58:23.979Z,-3.34
2024-01-10T21:00:53.122Z,-3.40
2024-01-10T21:03:20.054Z,-3.43
2024-01-10T21:05:46.899Z,-3.48
2024-01-10T21:08:15.080Z,-3.57
2024-01-10T21:10:41.748Z,-3.62
2024-01-10T21:13:08.240Z,-3.61
2024-01-10T21:15:35.094Z,-3.63
2024-01-10T21:18:01.796Z,-3.64
2024-01-10T21:20:31.039Z,-3.64
2024-01-10T21:23:00.256Z,-3.65
2024-01-10T21:25:27.647Z,-3.69
2024-01-10T21:27:54.187Z,-3.76
2024-01-10T21:30:20.827Z,-3.79
2024-01-10T21:32:47.677Z,-3.81
2024-01-10T21:35:14.489Z,-3.81
2024-01-10T21:37:41.364Z,-3.82
2024-01-10T21:40:08.674Z,-3.86
2024-01-10T21:42:35.404Z,-3.88
2024-01-10T21:45:01.850Z,-3.85
2024-01-10T21:47:33.001Z,-3.87
2024-01-10T21:50:00.800Z,-3.87
2024-01-10T21:52:28.066Z,-3.86
2024-01-10T21:54:55.351Z,-3.86
2024-01-10T21:57:24.115Z,-3.89
2024-01-10T21:59:51.195Z,-3.91
2024-01-10T22:02:17.807Z,-3.92
2024-01-10T22:04:45.873Z,-3.94
2024-01-10T22:07:13.295Z,-4.00
2024-01-10T22:09:39.862Z,-4.00
2024-01-10T22:12:08.132Z,-4.03
2024-01-10T22:14:34.934Z,-4.09
2024-01-10T22:17:01.835Z,-4.12
2024-01-10T22:19:28.619Z,-4.14
2024-01-10T22:21:55.389Z,-4.17
2024-01-10T22:24:22.175Z,-4.22
2024-01-10T22:26:51.545Z,-4.26
2024-01-10T22:29:18.736Z,-4.28
2024-01-10T22:31:45.388Z,-4.30
2024-01-10T22:34:12.176Z,-4.30
2024-01-10T22:36:38.864Z,-4.29
2024-01-10T22:39:05.592Z,-4.26
2024-01-10T22:41:32.230Z,-4.27
2024-01-10T22:43:58.850Z,-4.31
2024-01-10T22:46:26.027Z,-4.32
2024-01-10T22:48:53.056Z,-4.34
2024-01-10T22:51:19.738Z,-4.32
2024-01-10T22:53:46.317Z,-4.30
2024-01-10T22:56:13.029Z,-4.29
2024-01-10T22:58:39.600Z,-4.28
2024-01-10T23:01:06.177Z,-4.25
2024-01-10T23:03:39.335Z,-4.19
2024-01-10T23:06:07.365Z,-4.19
2024-01-10T23:08:36.297Z,-4.26
2024-01-10T23:11:03.569Z,-4.27
2024-01-10T23:13:30.186Z,-4.28
2024-01-10T23:15:56.757Z,-4.30
2024-01-10T23:18:23.532Z,-4.28
2024-01-10T23:20:50.128Z,-4.27
2024-01-10T23:23:16.699Z,-4.27
2024-01-10T23:25:43.329Z,-4.31
2024-01-10T23:28:09.946Z,-4.34
2024-01-10T23:30:36.530Z,-4.33
2024-01-10T23:33:04.403Z,-4.32
2024-01-10T23:35:40.119Z,-4.30
2024-01-10T23:38:12.123Z,-4.23
2024-01-10T23:40:41.250Z,-4.26
2024-01-10T23:43:15.508Z,-4.24
2024-01-10T23:45:50.756Z,-4.22
2024-01-10T23:48:17.609Z,-4.20
2024-01-10T23:50:44.761Z,-4.21
2024-01-10T23:53:11.479Z,-4.25
2024-01-10T23:55:37.981Z,-4.24
2024-01-10T23:58:04.787Z,-4.24
